sensor_id;sensor_type;location;lat;lon;timestamp;P1;durP1;ratioP1;P2;durP2;ratioP2
32228;SDS011;18717;48.034;11.186;2023-09-19T00:02:02;11.50;;;10.75;;
32228;SDS011;18717;48.034;11.186;2023-09-19T00:04:33;11.13;;;10.52;;
32228;SDS011;18717;48.034;11.186;2023-09-19T00:07:01;10.75;;;10.25;;
32228;SDS011;18717;48.034;11.186;2023-09-19T00:09:29;12.40;;;11.63;;
32228;SDS011;18717;48.034;11.186;2023-09-19T00:11:57;11.93;;;10.98;;
32228;SDS011;18717;48.034;11.186;2023-09-19T00:14:25;11.55;;;10.85;;
32228;SDS011;18717;48.034;11.186;2023-09-19T00:16:53;11.20;;;10.60;;
32228;SDS011;18717;48.034;11.186;2023-09-19T00:19:23;11.13;;;10.20;;
32228;SDS011;18717;48.034;11.186;2023-09-19T00:21:51;11.82;;;11.18;;
32228;SDS011;18717;48.034;11.186;2023-09-19T00:24:19;12.23;;;11.35;;
32228;SDS011;18717;48.034;11.186;2023-09-19T00:26:49;11.20;;;10.63;;
32228;SDS011;18717;48.034;11.186;2023-09-19T00:29:17;10.38;;;9.77;;
32228;SDS011;18717;48.034;11.186;2023-09-19T00:31:45;11.45;;;10.63;;
32228;SDS011;18717;48.034;11.186;2023-09-19T00:34:13;10.95;;;10.45;;
32228;SDS011;18717;48.034;11.186;2023-09-19T00:36:43;11.95;;;10.75;;
32228;SDS011;18717;48.034;11.186;2023-09-19T00:39:11;11.73;;;11.13;;
32228;SDS011;18717;48.034;11.186;2023-09-19T00:41:39;12.48;;;11.63;;
32228;SDS011;18717;48.034;11.186;2023-09-19T00:44:07;11.75;;;10.90;;
32228;SDS011;18717;48.034;11.186;2023-09-19T00:46:36;11.93;;;11.23;;
32228;SDS011;18717;48.034;11.186;2023-09-19T00:49:04;11.85;;;11.15;;
32228;SDS011;18717;48.034;11.186;2023-09-19T00:51:32;11.32;;;10.60;;
32228;SDS011;18717;48.034;11.186;2023-09-19T00:54:01;11.57;;;11.07;;
32228;SDS011;18717;48.034;11.186;2023-09-19T00:56:30;12.13;;;11.43;;
32228;SDS011;18717;48.034;11.186;2023-09-19T00:58:58;11.25;;;10.65;;
32228;SDS011;18717;48.034;11.186;2023-09-19T01:01:26;10.38;;;9.93;;
32228;SDS011;18717;48.034;11.186;2023-09-19T01:03:54;11.43;;;10.82;;
32228;SDS011;18717;48.034;11.186;2023-09-19T01:06:22;11.30;;;10.80;;
32228;SDS011;18717;48.034;11.186;2023-09-19T01:08:50;11.65;;;10.93;;
32228;SDS011;18717;48.034;11.186;2023-09-19T01:11:20;12.02;;;10.98;;
32228;SDS011;18717;48.034;11.186;2023-09-19T01:13:55;10.45;;;9.88;;
32228;SDS011;18717;48.034;11.186;2023-09-19T01:16:28;10.88;;;10.27;;
32228;SDS011;18717;48.034;11.186;2023-09-19T01:19:12;11.73;;;11.13;;
32228;SDS011;18717;48.034;11.186;2023-09-19T01:21:52;11.77;;;10.88;;
32228;SDS011;18717;48.034;11.186;2023-09-19T01:27:34;11.90;;;11.05;;
32228;SDS011;18717;48.034;11.186;2023-09-19T01:30:17;11.05;;;10.27;;
32228;SDS011;18717;48.034;11.186;2023-09-19T01:32:45;11.55;;;10.95;;
32228;SDS011;18717;48.034;11.186;2023-09-19T01:35:13;10.65;;;10.15;;
32228;SDS011;18717;48.034;11.186;2023-09-19T01:37:41;10.95;;;10.45;;
32228;SDS011;18717;48.034;11.186;2023-09-19T01:40:11;12.70;;;11.70;;
32228;SDS011;18717;48.034;11.186;2023-09-19T01:42:44;12.05;;;11.25;;
32228;SDS011;18717;48.034;11.186;2023-09-19T01:45:14;11.35;;;10.65;;
32228;SDS011;18717;48.034;11.186;2023-09-19T01:47:54;11.10;;;10.38;;
32228;SDS011;18717;48.034;11.186;2023-09-19T01:50:27;12.65;;;11.75;;
32228;SDS011;18717;48.034;11.186;2023-09-19T01:52:59;11.35;;;10.75;;
32228;SDS011;18717;48.034;11.186;2023-09-19T01:55:30;11.10;;;10.50;;
32228;SDS011;18717;48.034;11.186;2023-09-19T01:58:05;11.80;;;11.20;;
32228;SDS011;18717;48.034;11.186;2023-09-19T02:00:36;11.93;;;11.13;;
32228;SDS011;18717;48.034;11.186;2023-09-19T02:03:05;11.20;;;10.60;;
32228;SDS011;18717;48.034;11.186;2023-09-19T02:05:33;11.57;;;10.77;;
32228;SDS011;18717;48.034;11.186;2023-09-19T02:08:01;11.13;;;10.15;;
32228;SDS011;18717;48.034;11.186;2023-09-19T02:10:29;11.60;;;11.05;;
32228;SDS011;18717;48.034;11.186;2023-09-19T02:12:56;11.55;;;10.95;;
32228;SDS011;18717;48.034;11.186;2023-09-19T02:15:25;11.25;;;10.65;;
32228;SDS011;18717;48.034;11.186;2023-09-19T02:17:54;11.15;;;10.60;;
32228;SDS011;18717;48.034;11.186;2023-09-19T02:20:23;11.25;;;10.65;;
32228;SDS011;18717;48.034;11.186;2023-09-19T02:22:52;11.85;;;11.05;;
32228;SDS011;18717;48.034;11.186;2023-09-19T02:25:20;10.95;;;10.45;;
32228;SDS011;18717;48.034;11.186;2023-09-19T02:27:48;11.63;;;10.93;;
32228;SDS011;18717;48.034;11.186;2023-09-19T02:30:19;10.98;;;10.48;;
32228;SDS011;18717;48.034;11.186;2023-09-19T02:32:49;11.73;;;10.88;;
32228;SDS011;18717;48.034;11.186;2023-09-19T02:35:18;11.30;;;10.60;;
32228;SDS011;18717;48.034;11.186;2023-09-19T02:37:46;11.05;;;10.25;;
32228;SDS011;18717;48.034;11.186;2023-09-19T02:40:14;12.20;;;11.60;;
32228;SDS011;18717;48.034;11.186;2023-09-19T02:42:46;11.60;;;10.95;;
32228;SDS011;18717;48.034;11.186;2023-09-19T02:45:15;11.70;;;10.90;;
32228;SDS011;18717;48.034;11.186;2023-09-19T02:47:44;11.70;;;10.90;;
32228;SDS011;18717;48.034;11.186;2023-09-19T02:50:13;11.50;;;10.70;;
32228;SDS011;18717;48.034;11.186;2023-09-19T02:52:44;11.60;;;10.90;;
32228;SDS011;18717;48.034;11.186;2023-09-19T02:55:13;10.75;;;10.23;;
32228;SDS011;18717;48.034;11.186;2023-09-19T02:57:45;11.70;;;11.00;;
32228;SDS011;18717;48.034;11.186;2023-09-19T03:00:13;11.50;;;10.80;;
32228;SDS011;18717;48.034;11.186;2023-09-19T03:02:42;10.85;;;10.27;;
32228;SDS011;18717;48.034;11.186;2023-09-19T03:05:11;12.27;;;11.57;;
32228;SDS011;18717;48.034;11.186;2023-09-19T03:07:39;11.52;;;10.77;;
32228;SDS011;18717;48.034;11.186;2023-09-19T03:10:11;12.10;;;11.32;;
32228;SDS011;18717;48.034;11.186;2023-09-19T03:12:38;11.00;;;10.27;;
32228;SDS011;18717;48.034;11.186;2023-09-19T03:15:07;11.55;;;10.90;;
32228;SDS011;18717;48.034;11.186;2023-09-19T03:17:36;11.25;;;10.70;;
32228;SDS011;18717;48.034;11.186;2023-09-19T03:20:04;11.10;;;10.60;;
32228;SDS011;18717;48.034;11.186;2023-09-19T03:22:35;11.05;;;10.55;;
32228;SDS011;18717;48.034;11.186;2023-09-19T03:25:03;12.07;;;11.38;;
32228;SDS011;18717;48.034;11.186;2023-09-19T03:27:35;12.53;;;11.27;;
32228;SDS011;18717;48.034;11.186;2023-09-19T03:30:03;11.90;;;10.80;;
32228;SDS011;18717;48.034;11.186;2023-09-19T03:32:34;11.35;;;10.65;;
32228;SDS011;18717;48.034;11.186;2023-09-19T03:35:02;11.02;;;10.43;;
32228;SDS011;18717;48.034;11.186;2023-09-19T03:37:31;12.07;;;11.20;;
32228;SDS011;18717;48.034;11.186;2023-09-19T03:39:59;12.00;;;11.27;;
32228;SDS011;18717;48.034;11.186;2023-09-19T03:42:31;11.88;;;11.20;;
32228;SDS011;18717;48.034;11.186;2023-09-19T03:45:00;11.65;;;10.95;;
32228;SDS011;18717;48.034;11.186;2023-09-19T03:47:31;12.38;;;11.30;;
32228;SDS011;18717;48.034;11.186;2023-09-19T03:49:59;12.43;;;11.50;;
32228;SDS011;18717;48.034;11.186;2023-09-19T03:52:27;11.68;;;10.88;;
32228;SDS011;18717;48.034;11.186;2023-09-19T03:54:55;11.85;;;11.18;;
32228;SDS011;18717;48.034;11.186;2023-09-19T03:57:22;11.23;;;10.73;;
32228;SDS011;18717;48.034;11.186;2023-09-19T03:59:50;11.18;;;10.57;;
32228;SDS011;18717;48.034;11.186;2023-09-19T04:02:20;11.85;;;11.15;;
32228;SDS011;18717;48.034;11.186;2023-09-19T04:04:51;11.60;;;11.00;;
32228;SDS011;18717;48.034;11.186;2023-09-19T04:07:19;12.35;;;11.50;;
32228;SDS011;18717;48.034;11.186;2023-09-19T04:09:49;11.93;;;11.32;;
32228;SDS011;18717;48.034;11.186;2023-09-19T04:12:16;11.02;;;10.32;;
32228;SDS011;18717;48.034;11.186;2023-09-19T04:14:44;11.55;;;10.50;;
32228;SDS011;18717;48.034;11.186;2023-09-19T04:17:12;12.00;;;11.07;;
32228;SDS011;18717;48.034;11.186;2023-09-19T04:19:41;12.30;;;11.57;;
32228;SDS011;18717;48.034;11.186;2023-09-19T04:22:12;11.77;;;11.07;;
32228;SDS011;18717;48.034;11.186;2023-09-19T04:24:39;11.60;;;10.90;;
32228;SDS011;18717;48.034;11.186;2023-09-19T04:27:07;10.70;;;10.20;;
32228;SDS011;18717;48.034;11.186;2023-09-19T04:29:36;10.80;;;10.20;;
32228;SDS011;18717;48.034;11.186;2023-09-19T04:32:04;10.63;;;9.98;;
32228;SDS011;18717;48.034;11.186;2023-09-19T04:34:32;10.75;;;10.23;;
32228;SDS011;18717;48.034;11.186;2023-09-19T04:37:02;10.63;;;10.13;;
32228;SDS011;18717;48.034;11.186;2023-09-19T04:39:30;11.13;;;10.52;;
32228;SDS011;18717;48.034;11.186;2023-09-19T04:41:58;10.55;;;9.98;;
32228;SDS011;18717;48.034;11.186;2023-09-19T04:44:25;10.95;;;10.10;;
32228;SDS011;18717;48.034;11.186;2023-09-19T04:46:54;10.82;;;10.32;;
32228;SDS011;18717;48.034;11.186;2023-09-19T04:49:22;10.60;;;10.10;;
32228;SDS011;18717;48.034;11.186;2023-09-19T04:51:50;11.23;;;10.63;;
32228;SDS011;18717;48.034;11.186;2023-09-19T04:54:19;11.43;;;10.82;;
32228;SDS011;18717;48.034;11.186;2023-09-19T04:56:46;10.88;;;10.05;;
32228;SDS011;18717;48.034;11.186;2023-09-19T04:59:14;11.02;;;10.18;;
32228;SDS011;18717;48.034;11.186;2023-09-19T05:01:42;11.85;;;10.85;;
32228;SDS011;18717;48.034;11.186;2023-09-19T05:04:10;10.50;;;10.00;;
32228;SDS011;18717;48.034;11.186;2023-09-19T05:06:39;11.02;;;10.35;;
32228;SDS011;18717;48.034;11.186;2023-09-19T05:09:11;11.38;;;10.77;;
32228;SDS011;18717;48.034;11.186;2023-09-19T05:11:41;11.60;;;10.70;;
32228;SDS011;18717;48.034;11.186;2023-09-19T05:14:09;11.25;;;10.65;;
32228;SDS011;18717;48.034;11.186;2023-09-19T05:16:37;10.88;;;10.20;;
32228;SDS011;18717;48.034;11.186;2023-09-19T05:19:06;11.15;;;10.55;;
32228;SDS011;18717;48.034;11.186;2023-09-19T05:21:38;11.20;;;10.50;;
32228;SDS011;18717;48.034;11.186;2023-09-19T05:24:06;11.10;;;10.50;;
32228;SDS011;18717;48.034;11.186;2023-09-19T05:26:36;10.32;;;9.77;;
32228;SDS011;18717;48.034;11.186;2023-09-19T05:29:05;10.18;;;9.65;;
32228;SDS011;18717;48.034;11.186;2023-09-19T05:31:34;10.60;;;10.05;;
32228;SDS011;18717;48.034;11.186;2023-09-19T05:34:03;10.52;;;10.02;;
32228;SDS011;18717;48.034;11.186;2023-09-19T05:36:30;11.30;;;10.40;;
32228;SDS011;18717;48.034;11.186;2023-09-19T05:38:58;10.98;;;10.27;;
32228;SDS011;18717;48.034;11.186;2023-09-19T05:41:26;11.15;;;10.65;;
32228;SDS011;18717;48.034;11.186;2023-09-19T05:43:54;10.95;;;10.45;;
32228;SDS011;18717;48.034;11.186;2023-09-19T05:46:23;11.02;;;10.52;;
32228;SDS011;18717;48.034;11.186;2023-09-19T05:48:56;11.18;;;10.52;;
32228;SDS011;18717;48.034;11.186;2023-09-19T05:51:24;11.30;;;10.60;;
32228;SDS011;18717;48.034;11.186;2023-09-19T05:53:55;10.57;;;9.95;;
32228;SDS011;18717;48.034;11.186;2023-09-19T05:56:23;10.70;;;10.18;;
32228;SDS011;18717;48.034;11.186;2023-09-19T05:58:51;10.75;;;10.10;;
32228;SDS011;18717;48.034;11.186;2023-09-19T06:01:19;10.55;;;10.00;;
32228;SDS011;18717;48.034;11.186;2023-09-19T06:03:48;11.20;;;10.60;;
32228;SDS011;18717;48.034;11.186;2023-09-19T06:06:17;10.93;;;10.40;;
32228;SDS011;18717;48.034;11.186;2023-09-19T06:08:45;11.55;;;10.95;;
32228;SDS011;18717;48.034;11.186;2023-09-19T06:11:13;10.82;;;10.15;;
32228;SDS011;18717;48.034;11.186;2023-09-19T06:13:40;11.65;;;10.95;;
32228;SDS011;18717;48.034;11.186;2023-09-19T06:16:08;11.80;;;11.20;;
32228;SDS011;18717;48.034;11.186;2023-09-19T06:18:36;11.57;;;10.90;;
32228;SDS011;18717;48.034;11.186;2023-09-19T06:21:06;11.30;;;10.70;;
32228;SDS011;18717;48.034;11.186;2023-09-19T06:23:34;11.50;;;10.80;;
32228;SDS011;18717;48.034;11.186;2023-09-19T06:26:02;10.88;;;10.38;;
32228;SDS011;18717;48.034;11.186;2023-09-19T06:28:32;10.68;;;10.20;;
32228;SDS011;18717;48.034;11.186;2023-09-19T06:31:01;10.90;;;10.40;;
32228;SDS011;18717;48.034;11.186;2023-09-19T06:33:29;11.38;;;10.77;;
32228;SDS011;18717;48.034;11.186;2023-09-19T06:35:58;11.40;;;10.80;;
32228;SDS011;18717;48.034;11.186;2023-09-19T06:38:27;11.23;;;10.63;;
32228;SDS011;18717;48.034;11.186;2023-09-19T06:40:55;10.80;;;10.15;;
32228;SDS011;18717;48.034;11.186;2023-09-19T06:43:23;11.82;;;11.13;;
32228;SDS011;18717;48.034;11.186;2023-09-19T06:45:51;11.10;;;10.60;;
32228;SDS011;18717;48.034;11.186;2023-09-19T06:48:21;12.35;;;11.43;;
32228;SDS011;18717;48.034;11.186;2023-09-19T06:50:51;10.93;;;10.13;;
32228;SDS011;18717;48.034;11.186;2023-09-19T06:53:21;10.73;;;10.25;;
32228;SDS011;18717;48.034;11.186;2023-09-19T06:55:51;11.45;;;10.85;;
32228;SDS011;18717;48.034;11.186;2023-09-19T06:58:19;11.60;;;11.00;;
32228;SDS011;18717;48.034;11.186;2023-09-19T07:00:47;11.57;;;11.00;;
32228;SDS011;18717;48.034;11.186;2023-09-19T07:03:16;10.70;;;10.20;;
32228;SDS011;18717;48.034;11.186;2023-09-19T07:05:47;12.07;;;10.75;;
32228;SDS011;18717;48.034;11.186;2023-09-19T07:08:15;11.23;;;10.60;;
32228;SDS011;18717;48.034;11.186;2023-09-19T07:10:46;11.32;;;10.73;;
32228;SDS011;18717;48.034;11.186;2023-09-19T07:13:17;11.00;;;10.45;;
32228;SDS011;18717;48.034;11.186;2023-09-19T07:15:45;10.43;;;9.95;;
32228;SDS011;18717;48.034;11.186;2023-09-19T07:18:17;11.15;;;10.65;;
32228;SDS011;18717;48.034;11.186;2023-09-19T07:20:45;11.00;;;10.40;;
32228;SDS011;18717;48.034;11.186;2023-09-19T07:23:16;10.80;;;10.25;;
32228;SDS011;18717;48.034;11.186;2023-09-19T07:25:44;11.27;;;10.68;;
32228;SDS011;18717;48.034;11.186;2023-09-19T07:28:12;11.20;;;10.57;;
32228;SDS011;18717;48.034;11.186;2023-09-19T07:30:42;11.50;;;11.00;;
32228;SDS011;18717;48.034;11.186;2023-09-19T07:33:10;10.98;;;10.38;;
32228;SDS011;18717;48.034;11.186;2023-09-19T07:35:38;11.73;;;11.15;;
32228;SDS011;18717;48.034;11.186;2023-09-19T07:38:07;12.05;;;11.30;;
32228;SDS011;18717;48.034;11.186;2023-09-19T07:40:38;11.55;;;11.05;;
32228;SDS011;18717;48.034;11.186;2023-09-19T07:43:06;11.80;;;11.30;;
32228;SDS011;18717;48.034;11.186;2023-09-19T07:45:34;12.02;;;11.40;;
32228;SDS011;18717;48.034;11.186;2023-09-19T07:48:04;11.45;;;10.75;;
32228;SDS011;18717;48.034;11.186;2023-09-19T07:50:39;11.85;;;11.25;;
32228;SDS011;18717;48.034;11.186;2023-09-19T07:53:09;12.10;;;11.30;;
32228;SDS011;18717;48.034;11.186;2023-09-19T07:55:39;11.93;;;11.32;;
32228;SDS011;18717;48.034;11.186;2023-09-19T07:58:07;11.73;;;11.02;;
32228;SDS011;18717;48.034;11.186;2023-09-19T08:00:35;11.90;;;11.30;;
32228;SDS011;18717;48.034;11.186;2023-09-19T08:03:04;12.82;;;12.23;;
32228;SDS011;18717;48.034;11.186;2023-09-19T08:05:42;11.68;;;11.10;;
32228;SDS011;18717;48.034;11.186;2023-09-19T08:08:11;11.40;;;10.90;;
32228;SDS011;18717;48.034;11.186;2023-09-19T08:10:41;11.88;;;11.07;;
32228;SDS011;18717;48.034;11.186;2023-09-19T08:13:09;12.30;;;11.60;;
32228;SDS011;18717;48.034;11.186;2023-09-19T08:15:42;11.43;;;10.83;;
32228;SDS011;18717;48.034;11.186;2023-09-19T08:18:13;12.55;;;11.57;;
32228;SDS011;18717;48.034;11.186;2023-09-19T08:20:41;12.18;;;11.40;;
32228;SDS011;18717;48.034;11.186;2023-09-19T08:23:12;11.95;;;11.13;;
32228;SDS011;18717;48.034;11.186;2023-09-19T08:25:40;11.57;;;11.05;;
32228;SDS011;18717;48.034;11.186;2023-09-19T08:28:08;12.50;;;11.90;;
32228;SDS011;18717;48.034;11.186;2023-09-19T08:30:38;11.52;;;11.02;;
32228;SDS011;18717;48.034;11.186;2023-09-19T08:33:07;11.50;;;11.00;;
32228;SDS011;18717;48.034;11.186;2023-09-19T08:35:36;11.75;;;11.15;;
32228;SDS011;18717;48.034;11.186;2023-09-19T08:38:04;11.93;;;11.30;;
32228;SDS011;18717;48.034;11.186;2023-09-19T08:40:32;12.57;;;11.88;;
32228;SDS011;18717;48.034;11.186;2023-09-19T08:43:06;12.45;;;11.95;;
32228;SDS011;18717;48.034;11.186;2023-09-19T08:45:34;11.07;;;10.65;;
32228;SDS011;18717;48.034;11.186;2023-09-19T08:48:07;11.63;;;11.13;;
32228;SDS011;18717;48.034;11.186;2023-09-19T08:50:47;12.57;;;11.82;;
32228;SDS011;18717;48.034;11.186;2023-09-19T08:53:19;12.02;;;11.43;;
32228;SDS011;18717;48.034;11.186;2023-09-19T08:55:51;11.85;;;11.27;;
32228;SDS011;18717;48.034;11.186;2023-09-19T08:58:25;11.65;;;11.15;;
32228;SDS011;18717;48.034;11.186;2023-09-19T09:00:56;12.27;;;11.65;;
32228;SDS011;18717;48.034;11.186;2023-09-19T09:03:29;11.55;;;11.10;;
32228;SDS011;18717;48.034;11.186;2023-09-19T09:06:01;11.57;;;10.98;;
32228;SDS011;18717;48.034;11.186;2023-09-19T09:08:30;11.82;;;11.13;;
32228;SDS011;18717;48.034;11.186;2023-09-19T09:10:58;12.50;;;11.80;;
32228;SDS011;18717;48.034;11.186;2023-09-19T09:13:26;11.85;;;11.23;;
32228;SDS011;18717;48.034;11.186;2023-09-19T09:15:54;12.32;;;11.73;;
32228;SDS011;18717;48.034;11.186;2023-09-19T09:18:22;11.68;;;10.98;;
32228;SDS011;18717;48.034;11.186;2023-09-19T09:20:50;12.60;;;11.63;;
32228;SDS011;18717;48.034;11.186;2023-09-19T09:23:19;12.68;;;11.98;;
32228;SDS011;18717;48.034;11.186;2023-09-19T09:25:48;11.98;;;11.38;;
32228;SDS011;18717;48.034;11.186;2023-09-19T09:28:23;12.05;;;11.45;;
32228;SDS011;18717;48.034;11.186;2023-09-19T09:30:52;12.75;;;11.93;;
32228;SDS011;18717;48.034;11.186;2023-09-19T09:33:21;12.45;;;11.75;;
32228;SDS011;18717;48.034;11.186;2023-09-19T09:35:52;13.13;;;12.35;;
32228;SDS011;18717;48.034;11.186;2023-09-19T09:38:24;13.07;;;12.30;;
32228;SDS011;18717;48.034;11.186;2023-09-19T09:40:59;12.50;;;11.73;;
32228;SDS011;18717;48.034;11.186;2023-09-19T09:43:29;12.98;;;12.18;;
32228;SDS011;18717;48.034;11.186;2023-09-19T09:46:14;12.40;;;11.75;;
32228;SDS011;18717;48.034;11.186;2023-09-19T09:49:21;12.20;;;11.60;;
32228;SDS011;18717;48.034;11.186;2023-09-19T09:52:00;12.73;;;12.13;;
32228;SDS011;18717;48.034;11.186;2023-09-19T09:54:35;13.23;;;12.20;;
32228;SDS011;18717;48.034;11.186;2023-09-19T09:57:06;12.60;;;12.00;;
32228;SDS011;18717;48.034;11.186;2023-09-19T09:59:48;12.90;;;12.30;;
32228;SDS011;18717;48.034;11.186;2023-09-19T10:02:18;12.80;;;12.05;;
32228;SDS011;18717;48.034;11.186;2023-09-19T10:04:52;12.30;;;11.63;;
32228;SDS011;18717;48.034;11.186;2023-09-19T10:07:26;13.05;;;12.45;;
32228;SDS011;18717;48.034;11.186;2023-09-19T10:10:02;13.48;;;12.77;;
32228;SDS011;18717;48.034;11.186;2023-09-19T10:12:53;13.35;;;12.55;;
32228;SDS011;18717;48.034;11.186;2023-09-19T10:15:22;12.57;;;11.98;;
32228;SDS011;18717;48.034;11.186;2023-09-19T10:17:56;14.00;;;13.35;;
32228;SDS011;18717;48.034;11.186;2023-09-19T10:20:27;13.20;;;12.50;;
32228;SDS011;18717;48.034;11.186;2023-09-19T10:23:06;12.80;;;12.20;;
32228;SDS011;18717;48.034;11.186;2023-09-19T10:25:39;13.13;;;12.43;;
32228;SDS011;18717;48.034;11.186;2023-09-19T10:28:08;13.57;;;12.77;;
32228;SDS011;18717;48.034;11.186;2023-09-19T10:30:41;13.68;;;12.77;;
32228;SDS011;18717;48.034;11.186;2023-09-19T10:33:10;13.00;;;12.40;;
32228;SDS011;18717;48.034;11.186;2023-09-19T10:35:42;13.48;;;12.77;;
32228;SDS011;18717;48.034;11.186;2023-09-19T10:38:10;14.00;;;13.02;;
32228;SDS011;18717;48.034;11.186;2023-09-19T10:40:40;12.88;;;12.27;;
32228;SDS011;18717;48.034;11.186;2023-09-19T10:43:11;13.05;;;12.23;;
32228;SDS011;18717;48.034;11.186;2023-09-19T10:45:41;13.07;;;12.48;;
32228;SDS011;18717;48.034;11.186;2023-09-19T10:48:08;12.38;;;11.77;;
32228;SDS011;18717;48.034;11.186;2023-09-19T10:50:36;12.23;;;11.65;;
32228;SDS011;18717;48.034;11.186;2023-09-19T10:53:13;12.95;;;12.35;;
32228;SDS011;18717;48.034;11.186;2023-09-19T10:55:41;13.30;;;12.40;;
32228;SDS011;18717;48.034;11.186;2023-09-19T10:58:24;12.57;;;11.98;;
32228;SDS011;18717;48.034;11.186;2023-09-19T11:00:55;13.65;;;12.93;;
32228;SDS011;18717;48.034;11.186;2023-09-19T11:03:28;12.90;;;12.30;;
32228;SDS011;18717;48.034;11.186;2023-09-19T11:06:02;13.60;;;12.88;;
32228;SDS011;18717;48.034;11.186;2023-09-19T11:14:30;12.32;;;11.82;;
32228;SDS011;18717;48.034;11.186;2023-09-19T11:20:21;13.00;;;12.30;;
32228;SDS011;18717;48.034;11.186;2023-09-19T11:23:23;12.80;;;12.30;;
32228;SDS011;18717;48.034;11.186;2023-09-19T11:25:54;13.00;;;12.40;;
32228;SDS011;18717;48.034;11.186;2023-09-19T11:28:30;12.77;;;12.18;;
32228;SDS011;18717;48.034;11.186;2023-09-19T11:40:46;12.80;;;12.20;;
32228;SDS011;18717;48.034;11.186;2023-09-19T11:43:28;12.77;;;12.00;;
32228;SDS011;18717;48.034;11.186;2023-09-19T11:46:07;12.93;;;12.32;;
32228;SDS011;18717;48.034;11.186;2023-09-19T11:48:35;12.60;;;12.07;;
32228;SDS011;18717;48.034;11.186;2023-09-19T11:51:14;12.68;;;12.07;;
32228;SDS011;18717;48.034;11.186;2023-09-19T11:53:48;12.45;;;11.80;;
32228;SDS011;18717;48.034;11.186;2023-09-19T11:56:18;13.30;;;12.70;;
32228;SDS011;18717;48.034;11.186;2023-09-19T11:58:49;13.32;;;12.60;;
32228;SDS011;18717;48.034;11.186;2023-09-19T12:03:52;13.05;;;12.43;;
32228;SDS011;18717;48.034;11.186;2023-09-19T12:06:21;12.45;;;11.85;;
32228;SDS011;18717;48.034;11.186;2023-09-19T12:08:49;12.82;;;12.20;;
32228;SDS011;18717;48.034;11.186;2023-09-19T12:11:18;13.02;;;12.32;;
32228;SDS011;18717;48.034;11.186;2023-09-19T12:13:47;13.25;;;12.52;;
32228;SDS011;18717;48.034;11.186;2023-09-19T12:16:16;13.48;;;12.82;;
32228;SDS011;18717;48.034;11.186;2023-09-19T12:18:48;13.20;;;12.27;;
32228;SDS011;18717;48.034;11.186;2023-09-19T12:21:23;12.43;;;11.73;;
32228;SDS011;18717;48.034;11.186;2023-09-19T12:23:56;12.63;;;12.13;;
32228;SDS011;18717;48.034;11.186;2023-09-19T12:26:27;12.10;;;11.60;;
32228;SDS011;18717;48.034;11.186;2023-09-19T12:28:56;13.07;;;12.48;;
32228;SDS011;18717;48.034;11.186;2023-09-19T12:31:23;13.18;;;12.63;;
32228;SDS011;18717;48.034;11.186;2023-09-19T12:33:53;12.80;;;12.20;;
32228;SDS011;18717;48.034;11.186;2023-09-19T12:36:21;12.82;;;12.02;;
32228;SDS011;18717;48.034;11.186;2023-09-19T12:38:55;13.02;;;12.43;;
32228;SDS011;18717;48.034;11.186;2023-09-19T12:41:25;12.15;;;11.60;;
32228;SDS011;18717;48.034;11.186;2023-09-19T12:43:54;13.88;;;13.05;;
32228;SDS011;18717;48.034;11.186;2023-09-19T12:46:24;11.83;;;11.30;;
32228;SDS011;18717;48.034;11.186;2023-09-19T12:51:45;13.07;;;12.25;;
32228;SDS011;18717;48.034;11.186;2023-09-19T12:54:13;13.18;;;12.57;;
32228;SDS011;18717;48.034;11.186;2023-09-19T12:56:42;13.27;;;12.68;;
32228;SDS011;18717;48.034;11.186;2023-09-19T12:59:13;13.02;;;12.43;;
32228;SDS011;18717;48.034;11.186;2023-09-19T13:01:41;13.52;;;12.90;;
32228;SDS011;18717;48.034;11.186;2023-09-19T13:04:13;13.10;;;12.40;;
32228;SDS011;18717;48.034;11.186;2023-09-19T13:06:48;12.65;;;12.05;;
32228;SDS011;18717;48.034;11.186;2023-09-19T13:09:21;13.80;;;13.00;;
32228;SDS011;18717;48.034;11.186;2023-09-19T13:11:51;13.82;;;13.00;;
32228;SDS011;18717;48.034;11.186;2023-09-19T13:14:22;12.98;;;12.38;;
32228;SDS011;18717;48.034;11.186;2023-09-19T13:16:58;12.98;;;12.38;;
32228;SDS011;18717;48.034;11.186;2023-09-19T13:19:37;13.20;;;12.40;;
32228;SDS011;18717;48.034;11.186;2023-09-19T13:25:13;12.57;;;12.02;;
32228;SDS011;18717;48.034;11.186;2023-09-19T13:27:41;13.25;;;12.48;;
32228;SDS011;18717;48.034;11.186;2023-09-19T13:30:12;13.85;;;13.05;;
32228;SDS011;18717;48.034;11.186;2023-09-19T13:32:40;12.48;;;11.80;;
32228;SDS011;18717;48.034;11.186;2023-09-19T13:35:10;12.63;;;12.00;;
32228;SDS011;18717;48.034;11.186;2023-09-19T13:37:38;13.25;;;12.55;;
32228;SDS011;18717;48.034;11.186;2023-09-19T13:40:08;14.05;;;13.35;;
32228;SDS011;18717;48.034;11.186;2023-09-19T13:42:36;13.13;;;12.43;;
32228;SDS011;18717;48.034;11.186;2023-09-19T13:45:04;13.00;;;12.50;;
32228;SDS011;18717;48.034;11.186;2023-09-19T13:47:34;12.57;;;12.07;;
32228;SDS011;18717;48.034;11.186;2023-09-19T13:52:33;12.30;;;11.70;;
32228;SDS011;18717;48.034;11.186;2023-09-19T13:55:01;12.45;;;11.85;;
32228;SDS011;18717;48.034;11.186;2023-09-19T13:57:28;12.82;;;12.30;;
32228;SDS011;18717;48.034;11.186;2023-09-19T13:59:56;12.13;;;11.63;;
32228;SDS011;18717;48.034;11.186;2023-09-19T14:02:24;13.68;;;12.98;;
32228;SDS011;18717;48.034;11.186;2023-09-19T14:04:53;13.05;;;12.45;;
32228;SDS011;18717;48.034;11.186;2023-09-19T14:07:21;12.73;;;12.23;;
32228;SDS011;18717;48.034;11.186;2023-09-19T14:09:49;12.40;;;11.90;;
32228;SDS011;18717;48.034;11.186;2023-09-19T14:12:17;12.00;;;11.50;;
32228;SDS011;18717;48.034;11.186;2023-09-19T14:14:44;12.95;;;12.25;;
32228;SDS011;18717;48.034;11.186;2023-09-19T14:17:12;12.98;;;12.38;;
32228;SDS011;18717;48.034;11.186;2023-09-19T14:19:41;13.18;;;12.57;;
32228;SDS011;18717;48.034;11.186;2023-09-19T14:22:13;12.52;;;12.02;;
32228;SDS011;18717;48.034;11.186;2023-09-19T14:24:41;12.15;;;11.65;;
32228;SDS011;18717;48.034;11.186;2023-09-19T14:27:08;12.93;;;12.23;;
32228;SDS011;18717;48.034;11.186;2023-09-19T14:29:37;12.95;;;12.35;;
32228;SDS011;18717;48.034;11.186;2023-09-19T14:32:05;13.05;;;12.45;;
32228;SDS011;18717;48.034;11.186;2023-09-19T14:34:33;12.73;;;12.02;;
32228;SDS011;18717;48.034;11.186;2023-09-19T14:37:03;12.10;;;11.60;;
32228;SDS011;18717;48.034;11.186;2023-09-19T14:39:32;13.05;;;12.45;;
32228;SDS011;18717;48.034;11.186;2023-09-19T14:42:00;12.88;;;12.32;;
32228;SDS011;18717;48.034;11.186;2023-09-19T14:44:27;12.55;;;11.95;;
32228;SDS011;18717;48.034;11.186;2023-09-19T14:46:55;12.45;;;11.95;;
32228;SDS011;18717;48.034;11.186;2023-09-19T14:49:23;12.80;;;12.00;;
32228;SDS011;18717;48.034;11.186;2023-09-19T14:51:51;13.88;;;12.93;;
32228;SDS011;18717;48.034;11.186;2023-09-19T14:54:19;12.90;;;12.20;;
32228;SDS011;18717;48.034;11.186;2023-09-19T14:56:48;12.30;;;11.80;;
32228;SDS011;18717;48.034;11.186;2023-09-19T14:59:20;12.68;;;11.98;;